createdAt,value
2019-05-01T00:02:34.216Z,10.87
2019-05-01T00:05:38.993Z,10.82
2019-05-01T00:08:40.993Z,10.66
2019-05-01T00:11:43.081Z,10.61
2019-05-01T00:14:45.005Z,10.55
2019-05-01T00:17:46.948Z,10.50
2019-05-01T00:20:49.025Z,10.45
2019-05-01T00:23:50.952Z,10.39
2019-05-01T00:26:52.923Z,10.35
2019-05-01T00:29:54.841Z,10.31
2019-05-01T00:32:56.824Z,10.23
2019-05-01T00:35:58.807Z,10.17
2019-05-01T00:39:01.294Z,10.13
2019-05-01T00:42:05.032Z,10.05
2019-05-01T00:45:07.672Z,9.95
2019-05-01T00:48:10.965Z,9.84
2019-05-01T00:51:12.883Z,9.79
2019-05-01T00:54:14.884Z,9.74
2019-05-01T00:57:27.733Z,9.61
2019-05-01T01:00:47.871Z,9.54
2019-05-01T01:03:50.116Z,9.40
2019-05-01T01:06:52.180Z,9.31
2019-05-01T01:09:54.171Z,9.26
2019-05-01T01:12:56.288Z,9.28
2019-05-01T01:15:58.223Z,9.24
2019-05-01T01:19:00.148Z,9.24
2019-05-01T01:22:02.117Z,9.19
2019-05-01T01:25:05.389Z,9.13
2019-05-01T01:28:07.409Z,9.12
2019-05-01T01:31:09.344Z,9.07
2019-05-01T01:34:11.311Z,9.10
2019-05-01T01:37:13.368Z,9.12
2019-05-01T01:40:15.270Z,9.03
2019-05-01T01:43:36.040Z,8.93
2019-05-01T01:46:40.219Z,8.85
2019-05-01T01:49:42.309Z,8.69
2019-05-01T01:52:44.248Z,8.63
2019-05-01T01:55:47.945Z,8.54
2019-05-01T01:58:51.254Z,8.45
2019-05-01T02:01:55.233Z,8.39
2019-05-01T02:05:04.792Z,8.30
2019-05-01T02:08:08.938Z,8.25
2019-05-01T02:11:11.096Z,8.15
2019-05-01T02:14:13.583Z,8.12
2019-05-01T02:17:15.527Z,8.11
2019-05-01T02:20:19.516Z,8.03
2019-05-01T02:23:21.435Z,7.98
2019-05-01T02:26:26.585Z,7.94
2019-05-01T02:29:37.404Z,7.94
2019-05-01T02:32:39.834Z,7.95
2019-05-01T02:35:42.854Z,7.87
2019-05-01T02:38:46.812Z,7.86
2019-05-01T02:41:51.631Z,7.82
2019-05-01T02:44:57.520Z,7.79
2019-05-01T02:48:00.119Z,7.76
2019-05-01T02:51:04.272Z,7.72
2019-05-01T02:54:07.781Z,7.74
2019-05-01T02:57:12.988Z,7.73
2019-05-01T03:00:17.095Z,7.73
2019-05-01T03:03:19.048Z,7.72
2019-05-01T03:06:21.037Z,7.74
2019-05-01T03:09:23.320Z,7.71
2019-05-01T03:12:28.880Z,7.72
2019-05-01T03:15:34.477Z,7.74
2019-05-01T03:18:44.512Z,7.74
2019-05-01T03:21:48.236Z,7.74
2019-05-01T03:24:50.905Z,7.76
2019-05-01T03:27:52.976Z,7.84
2019-05-01T03:30:55.396Z,7.90
2019-05-01T03:33:58.587Z,7.97
2019-05-01T03:37:03.694Z,8.07
2019-05-01T03:40:05.856Z,8.11
2019-05-01T03:43:07.784Z,8.18
2019-05-01T03:46:10.037Z,8.29
2019-05-01T03:49:12.206Z,8.43
2019-05-01T03:52:14.402Z,8.73
2019-05-01T03:55:16.529Z,9.18
2019-05-01T03:58:18.552Z,9.71
2019-05-01T04:01:25.183Z,10.22
2019-05-01T04:04:30.920Z,10.27
2019-05-01T04:07:36.205Z,10.25
2019-05-01T04:10:37.317Z,10.34
2019-05-01T04:13:39.296Z,10.89
2019-05-01T04:16:43.301Z,10.95
2019-05-01T04:19:45.356Z,10.89
2019-05-01T04:22:47.797Z,10.87
2019-05-01T04:25:50.235Z,10.89
2019-05-01T04:28:54.994Z,10.90
2019-05-01T04:31:59.323Z,10.91
2019-05-01T04:39:06.996Z,10.88
2019-05-01T04:42:09.081Z,10.61
2019-05-01T04:45:11.073Z,10.68
2019-05-01T04:48:13.434Z,10.79
2019-05-01T04:51:15.471Z,10.97
2019-05-01T04:54:17.586Z,11.25
2019-05-01T04:57:19.635Z,11.91
2019-05-01T05:00:21.733Z,13.84
2019-05-01T05:03:25.477Z,15.49
2019-05-01T05:06:27.630Z,17.35
2019-05-01T05:09:38.086Z,19.06
2019-05-01T05:12:51.877Z,20.57
2019-05-01T05:15:55.584Z,21.85
2019-05-01T05:18:57.781Z,22.83
2019-05-01T05:21:59.778Z,23.30
2019-05-01T05:25:01.716Z,22.43
2019-05-01T05:28:03.669Z,21.10
2019-05-01T05:31:09.225Z,20.34
2019-05-01T05:34:13.467Z,21.27
2019-05-01T05:37:20.325Z,22.16
2019-05-01T05:40:24.355Z,22.97
2019-05-01T05:43:26.588Z,23.29
2019-05-01T05:46:28.865Z,23.85
2019-05-01T05:49:31.682Z,24.55
2019-05-01T05:52:43.982Z,25.09
2019-05-01T05:55:49.624Z,25.68
2019-05-01T05:59:14.461Z,26.31
2019-05-01T06:02:21.848Z,27.06
2019-05-01T06:05:32.423Z,27.42
2019-05-01T06:08:38.030Z,27.38
2019-05-01T06:11:58.841Z,27.72
2019-05-01T06:15:21.087Z,28.08
2019-05-01T06:18:34.755Z,28.39
2019-05-01T06:21:40.514Z,28.51
2019-05-01T06:24:49.679Z,28.93
2019-05-01T06:27:51.637Z,29.04
2019-05-01T06:30:55.384Z,29.16
2019-05-01T06:33:57.419Z,29.26
2019-05-01T06:36:59.405Z,29.40
2019-05-01T06:40:03.138Z,29.74
2019-05-01T06:43:09.623Z,29.71
2019-05-01T06:46:13.541Z,29.66
2019-05-01T06:49:24.219Z,29.69
2019-05-01T06:52:29.369Z,29.56
2019-05-01T06:55:30.720Z,29.45
2019-05-01T06:58:32.947Z,29.62
2019-05-01T07:01:39.858Z,30.03
2019-05-01T07:04:46.058Z,30.49
2019-05-01T07:07:53.246Z,31.24
2019-05-01T07:10:52.666Z,30.82
2019-05-01T07:13:55.930Z,30.77
2019-05-01T07:16:58.066Z,31.05
2019-05-01T07:20:19.517Z,30.86
2019-05-01T07:23:21.566Z,29.78
2019-05-01T07:26:23.551Z,28.77
2019-05-01T07:29:27.490Z,28.51
2019-05-01T07:32:29.630Z,28.72
2019-05-01T07:35:33.025Z,29.17
2019-05-01T07:38:38.460Z,29.69
2019-05-01T07:41:40.795Z,30.09
2019-05-01T07:44:44.669Z,30.25
2019-05-01T07:47:51.384Z,30.48
2019-05-01T07:50:53.452Z,30.90
2019-05-01T07:53:59.097Z,31.07
2019-05-01T07:57:03.240Z,31.00
2019-05-01T08:00:09.456Z,30.91
2019-05-01T08:03:11.433Z,29.81
2019-05-01T08:06:16.132Z,28.83
2019-05-01T08:09:17.289Z,28.64
2019-05-01T08:12:24.090Z,28.05
2019-05-01T08:15:27.628Z,27.64
2019-05-01T08:18:36.250Z,27.35
2019-05-01T08:21:40.190Z,26.96
2019-05-01T08:24:44.147Z,26.49
2019-05-01T08:27:55.596Z,25.77
2019-05-01T08:30:59.308Z,25.39
2019-05-01T08:34:03.001Z,25.10
2019-05-01T08:37:06.522Z,25.30
2019-05-01T08:40:09.361Z,25.56
2019-05-01T08:43:13.664Z,25.30
2019-05-01T08:46:33.771Z,25.71
2019-05-01T08:49:42.212Z,25.86
2019-05-01T08:52:42.729Z,26.28
2019-05-01T08:55:47.030Z,26.77
2019-05-01T08:58:50.517Z,27.12
2019-05-01T09:02:08.559Z,26.93
2019-05-01T09:05:02.366Z,26.09
2019-05-01T09:08:00.814Z,25.46
2019-05-01T09:11:02.814Z,24.97
2019-05-01T09:14:04.853Z,24.50
2019-05-01T09:17:06.903Z,24.25
2019-05-01T09:20:10.236Z,23.65
2019-05-01T09:23:14.346Z,23.12
2019-05-01T09:26:18.153Z,23.04
2019-05-01T09:29:38.706Z,23.25
2019-05-01T09:32:40.913Z,23.51
2019-05-01T09:35:45.436Z,23.67
2019-05-01T09:38:49.888Z,23.68
2019-05-01T09:41:50.816Z,23.71
2019-05-01T09:44:52.785Z,23.60
2019-05-01T09:47:54.826Z,23.49
2019-05-01T09:51:00.916Z,23.51
2019-05-01T09:54:13.519Z,23.66
2019-05-01T09:57:15.471Z,23.56
2019-05-01T10:00:19.707Z,23.51
2019-05-01T10:03:21.707Z,23.84
2019-05-01T10:06:23.633Z,24.29
2019-05-01T10:09:26.894Z,24.23
2019-05-01T10:12:29.314Z,24.02
2019-05-01T10:15:31.528Z,24.08
2019-05-01T10:18:33.884Z,24.54
2019-05-01T10:21:36.020Z,24.56
2019-05-01T10:24:39.376Z,24.52
2019-05-01T10:27:43.323Z,24.69
2019-05-01T10:30:59.039Z,24.73
2019-05-01T10:34:19.441Z,24.96
2019-05-01T10:37:23.637Z,24.88
2019-05-01T10:40:26.955Z,24.72
2019-05-01T10:43:29.347Z,24.32
2019-05-01T10:46:31.395Z,24.08
2019-05-01T10:49:33.344Z,23.93
2019-05-01T10:52:35.883Z,23.79
2019-05-01T10:55:37.822Z,23.92
2019-05-01T10:58:39.868Z,24.17
2019-05-01T11:01:46.393Z,24.27
2019-05-01T11:04:48.435Z,24.21
2019-05-01T11:07:50.595Z,24.28
2019-05-01T11:10:52.553Z,24.28
2019-05-01T11:13:54.580Z,24.00
2019-05-01T11:16:56.648Z,23.63
2019-05-01T11:19:59.593Z,23.42
2019-05-01T11:23:01.720Z,23.24
2019-05-01T11:26:03.673Z,23.41
2019-05-01T11:29:05.811Z,23.42
2019-05-01T11:32:26.306Z,23.48
2019-05-01T11:35:45.525Z,23.60
2019-05-01T11:38:49.400Z,23.54
2019-05-01T11:41:59.480Z,23.42
2019-05-01T11:45:01.469Z,23.39
2019-05-01T11:48:03.408Z,23.38
2019-05-01T11:51:05.430Z,23.35
2019-05-01T11:54:07.431Z,23.51
2019-05-01T11:57:09.441Z,23.60
2019-05-01T12:00:13.900Z,23.65
2019-05-01T12:03:15.917Z,23.35
2019-05-01T12:06:23.095Z,23.05
2019-05-01T12:09:21.812Z,23.01
2019-05-01T12:12:25.618Z,23.00
2019-05-01T12:15:27.601Z,22.88
2019-05-01T12:18:29.605Z,22.71
2019-05-01T12:21:31.600Z,22.61
2019-05-01T12:24:33.757Z,22.60
2019-05-01T12:27:35.713Z,22.77
2019-05-01T12:30:37.751Z,22.98
2019-05-01T12:33:39.710Z,22.90
2019-05-01T12:36:43.014Z,22.83
2019-05-01T12:39:45.467Z,22.86
2019-05-01T12:42:47.518Z,22.73
2019-05-01T12:45:51.293Z,22.86
2019-05-01T12:48:53.287Z,22.94
2019-05-01T12:52:09.903Z,23.00
2019-05-01T12:55:03.043Z,23.06
2019-05-01T12:58:05.007Z,23.08
2019-05-01T13:01:07.160Z,23.13
2019-05-01T13:04:09.134Z,22.96
2019-05-01T13:07:12.711Z,22.99
2019-05-01T13:10:15.073Z,23.02
2019-05-01T13:13:17.656Z,22.96
2019-05-01T13:16:19.706Z,22.84
2019-05-01T13:19:21.668Z,22.97
2019-05-01T13:22:23.596Z,22.92
2019-05-01T13:25:25.776Z,22.95
2019-05-01T13:28:41.407Z,22.91
2019-05-01T13:31:51.239Z,22.99
2019-05-01T13:34:53.202Z,23.04
2019-05-01T13:37:55.225Z,22.78
2019-05-01T13:40:57.236Z,22.62
2019-05-01T13:43:59.227Z,22.38
2019-05-01T13:47:01.158Z,22.27
2019-05-01T13:50:06.615Z,21.96
2019-05-01T13:53:08.603Z,21.65
2019-05-01T13:56:11.244Z,21.61
2019-05-01T13:59:15.010Z,21.60
2019-05-01T14:02:17.036Z,21.53
2019-05-01T14:05:19.399Z,21.46
2019-05-01T14:08:21.395Z,21.51
2019-05-01T14:11:23.368Z,21.47
2019-05-01T14:14:25.640Z,21.34
2019-05-01T14:17:27.597Z,21.20
2019-05-01T14:20:34.182Z,21.07
2019-05-01T14:23:50.370Z,20.82
2019-05-01T14:26:52.489Z,20.82
2019-05-01T14:29:54.469Z,20.74
2019-05-01T14:32:56.438Z,20.76
2019-05-01T14:35:58.357Z,20.87
2019-05-01T14:39:00.686Z,20.95
2019-05-01T14:42:02.641Z,20.60
2019-05-01T14:45:08.399Z,20.40
2019-05-01T14:48:10.302Z,20.20
2019-05-01T14:51:12.328Z,20.12
2019-05-01T14:54:14.262Z,20.19
2019-05-01T14:57:16.245Z,20.18
2019-05-01T15:00:19.107Z,20.30
2019-05-01T15:03:21.030Z,20.50
2019-05-01T15:06:22.990Z,20.70
2019-05-01T15:09:24.965Z,20.75
2019-05-01T15:12:26.899Z,20.64
2019-05-01T15:15:39.822Z,20.50
2019-05-01T15:18:46.360Z,20.37
2019-05-01T15:21:48.320Z,20.15
2019-05-01T15:24:50.305Z,20.00
2019-05-01T15:27:52.387Z,19.88
2019-05-01T15:30:54.302Z,19.86
2019-05-01T15:33:56.258Z,19.89
2019-05-01T15:36:58.258Z,19.95
2019-05-01T15:40:02.359Z,20.05
2019-05-01T15:43:06.125Z,19.96
2019-05-01T15:46:08.150Z,19.94
2019-05-01T15:49:10.127Z,19.88
2019-05-01T15:52:12.095Z,19.85
2019-05-01T15:55:14.148Z,19.71
2019-05-01T15:58:16.404Z,19.45
2019-05-01T16:01:18.329Z,19.43
2019-05-01T16:04:20.387Z,19.32
2019-05-01T16:07:22.308Z,19.28
2019-05-01T16:10:26.140Z,19.29
2019-05-01T16:13:28.060Z,19.29
2019-05-01T16:16:30.064Z,19.23
2019-05-01T16:19:32.024Z,19.04
2019-05-01T16:22:34.186Z,18.93
2019-05-01T16:25:37.519Z,18.79
2019-05-01T16:28:39.593Z,18.73
2019-05-01T16:31:41.544Z,18.70
2019-05-01T16:34:43.472Z,18.69
2019-05-01T16:37:45.503Z,18.63
2019-05-01T16:40:51.839Z,18.60
2019-05-01T16:43:53.776Z,18.50
2019-05-01T16:46:55.818Z,18.44
2019-05-01T16:49:57.798Z,18.37
2019-05-01T16:53:00.759Z,18.30
2019-05-01T16:56:02.791Z,18.21
2019-05-01T16:59:04.830Z,18.15
2019-05-01T17:02:14.528Z,18.20
2019-05-01T17:05:24.555Z,18.24
2019-05-01T17:08:36.527Z,18.20
2019-05-01T17:11:35.303Z,18.23
2019-05-01T17:14:39.925Z,18.20
2019-05-01T17:17:41.950Z,18.16
2019-05-01T17:20:43.914Z,18.07
2019-05-01T17:23:45.915Z,18.10
2019-05-01T17:26:47.846Z,18.07
2019-05-01T17:29:49.935Z,18.05
2019-05-01T17:32:51.937Z,17.98
2019-05-01T17:35:54.274Z,17.91
2019-05-01T17:38:58.089Z,17.84
2019-05-01T17:42:02.037Z,17.78
2019-05-01T17:45:07.122Z,17.74
2019-05-01T17:48:09.146Z,17.74
2019-05-01T17:51:12.969Z,17.66
2019-05-01T17:54:14.870Z,17.61
2019-05-01T17:57:16.802Z,17.60
2019-05-01T18:00:26.724Z,17.51
2019-05-01T18:03:47.028Z,17.46
2019-05-01T18:06:50.430Z,17.30
2019-05-01T18:09:55.692Z,17.18
2019-05-01T18:12:56.653Z,17.16
2019-05-01T18:16:00.293Z,17.08
2019-05-01T18:19:04.034Z,17.09
2019-05-01T18:22:10.913Z,17.04
2019-05-01T18:25:16.623Z,16.96
2019-05-01T18:28:38.874Z,16.84
2019-05-01T18:31:41.072Z,16.75
2019-05-01T18:34:43.553Z,16.58
2019-05-01T18:37:50.573Z,16.51
2019-05-01T18:40:54.743Z,16.40
2019-05-01T18:43:57.169Z,16.29
2019-05-01T18:47:01.253Z,16.24
2019-05-01T18:50:06.308Z,16.12
2019-05-01T18:53:11.506Z,16.08
2019-05-01T18:56:12.602Z,16.06
2019-05-01T18:59:16.065Z,15.99
2019-05-01T19:02:20.405Z,16.01
2019-05-01T19:05:22.929Z,16.03
2019-05-01T19:08:24.917Z,16.10
2019-05-01T19:11:27.006Z,16.10
2019-05-01T19:14:30.809Z,16.05
2019-05-01T19:17:32.988Z,16.06
2019-05-01T19:20:39.988Z,16.03
2019-05-01T19:23:45.237Z,15.99
2019-05-01T19:26:48.353Z,16.02
2019-05-01T19:29:50.622Z,15.99
2019-05-01T19:32:52.749Z,15.98
2019-05-01T19:36:08.052Z,15.92
2019-05-01T19:39:11.488Z,15.95
2019-05-01T19:42:11.255Z,15.93
2019-05-01T19:45:18.451Z,15.94
2019-05-01T19:48:20.713Z,15.85
2019-05-01T19:51:26.028Z,15.76
2019-05-01T19:54:30.066Z,15.71
2019-05-01T19:57:36.703Z,15.67
2019-05-01T20:00:51.263Z,15.64
2019-05-01T20:03:54.943Z,15.62
2019-05-01T20:06:57.975Z,15.55
2019-05-01T20:10:00.071Z,15.62
2019-05-01T20:13:02.403Z,15.59
2019-05-01T20:16:07.820Z,15.56
2019-05-01T20:19:10.482Z,15.57
2019-05-01T20:22:15.383Z,15.52
2019-05-01T20:25:19.493Z,15.43
2019-05-01T20:28:22.453Z,15.36
2019-05-01T20:31:30.684Z,15.30
2019-05-01T20:34:33.301Z,15.27
2019-05-01T20:37:35.226Z,15.27
2019-05-01T20:40:38.751Z,15.22
2019-05-01T20:43:43.615Z,15.20
2019-05-01T20:46:44.732Z,15.17
2019-05-01T20:49:46.969Z,15.16
2019-05-01T20:52:51.004Z,15.15
2019-05-01T20:55:57.910Z,15.19
2019-05-01T20:59:03.136Z,15.22
2019-05-01T21:02:08.041Z,15.24
2019-05-01T21:05:11.506Z,15.17
2019-05-01T21:08:18.033Z,15.10
2019-05-01T21:11:24.582Z,15.02
2019-05-01T21:14:26.527Z,14.87
2019-05-01T21:17:28.533Z,14.83
2019-05-01T21:20:30.530Z,14.74
2019-05-01T21:23:33.459Z,14.65
2019-05-01T21:26:35.596Z,14.54
2019-05-01T21:29:38.175Z,14.43
2019-05-01T21:32:40.263Z,14.37
2019-05-01T21:35:44.341Z,14.29
2019-05-01T21:38:46.152Z,14.22
2019-05-01T21:41:48.840Z,14.12
2019-05-01T21:44:50.727Z,14.15
2019-05-01T21:47:52.960Z,14.11
2019-05-01T21:50:58.067Z,14.09
2019-05-01T21:53:58.943Z,14.15
2019-05-01T21:57:00.912Z,14.25
2019-05-01T22:00:05.813Z,14.35
2019-05-01T22:03:09.634Z,14.46
2019-05-01T22:06:15.438Z,14.54
2019-05-01T22:09:21.444Z,14.62
2019-05-01T22:12:23.694Z,14.65
2019-05-01T22:15:36.831Z,14.73
2019-05-01T22:18:46.361Z,14.74
2019-05-01T22:22:06.753Z,14.73
2019-05-01T22:25:25.912Z,14.72
2019-05-01T22:28:32.581Z,14.73
2019-05-01T22:31:52.821Z,14.76
2019-05-01T22:34:57.074Z,14.75
2019-05-01T22:37:59.074Z,14.72
2019-05-01T22:41:11.666Z,14.67
2019-05-01T22:44:17.923Z,14.62
2019-05-01T22:47:17.476Z,14.54
2019-05-01T22:50:19.398Z,14.43
2019-05-01T22:53:21.327Z,14.34
2019-05-01T22:56:23.309Z,14.21
2019-05-01T22:59:25.271Z,14.07
2019-05-01T23:02:37.837Z,13.97
2019-05-01T23:05:39.757Z,13.81
2019-05-01T23:08:41.659Z,13.64
2019-05-01T23:11:45.424Z,13.63
2019-05-01T23:14:47.560Z,13.58
2019-05-01T23:17:50.298Z,13.58
2019-05-01T23:20:52.257Z,13.65
2019-05-01T23:23:56.935Z,13.65
2019-05-01T23:26:58.148Z,13.65
2019-05-01T23:30:00.636Z,13.62
2019-05-01T23:33:02.611Z,13.63
2019-05-01T23:36:04.664Z,13.70
2019-05-01T23:39:06.828Z,13.71
2019-05-01T23:42:08.783Z,13.68
2019-05-01T23:45:10.907Z,13.67
2019-05-01T23:48:12.872Z,13.66
2019-05-01T23:51:14.799Z,13.73
2019-05-01T23:54:16.745Z,13.73
2019-05-01T23:57:19.928Z,13.73
